PGV weather

Pitt Greenville Airport
Greenville, North Carolina, United States

Public forecast

Using degrees Fahrenheit for public forecast. Weather courtesy of forecast.io.

METAR (pilot weather report)

Retrieved 2019/06/16 08:30 UTC (0 seconds ago):

KPGV 160830Z AUTO 21004KT 10SM CLR 18/16 A3007 RMK AO2

TAF (pilot weather forecast)

Retrieved 2019/06/16 06:30 UTC (2 hours ago):

TAF KPGV 160527Z 1606/1706 20005KT P6SM SCT250 FM161800 23010G15KT P6SM FEW250 FM162200 21010KT P6SM FEW250 AMD LTD TO CLD VIS AND WIND